Time;durP1;ratioP1;P1;durP2;ratioP2;P2;SDS_P1;SDS_P2;PMS_P1;PMS_P2;Temp;Humidity;BMP_temperature;BMP_pressure;BME280_temperature;BME280_humidity;BME280_pressure;Samples;Min_cycle;Max_cycle;Signal;HPM_P1;HPM_P2
2023/01/31 00:00:49;;;;;;;30.70;6.18;;;;;;;2.20;100.00;102318.81;4961602;28;20070;-71
2023/01/31 00:03:15;;;;;;;32.25;5.05;;;;;;;2.12;100.00;102320.63;4982480;28;20041;-71
2023/01/31 00:05:40;;;;;;;42.22;4.53;;;;;;;2.19;100.00;102327.59;4975132;28;20041;-71
2023/01/31 00:08:06;;;;;;;30.42;5.15;;;;;;;2.06;100.00;102324.16;4990990;28;20042;-71
2023/01/31 00:10:31;;;;;;;18.65;4.50;;;;;;;2.17;100.00;102320.59;4973323;28;20077;-71
2023/01/31 00:12:57;;;;;;;27.92;5.45;;;;;;;2.50;100.00;102322.16;4974034;28;20100;-71
2023/01/31 00:15:22;;;;;;;20.77;4.78;;;;;;;2.55;100.00;102321.25;4971034;28;20034;-71
2023/01/31 00:17:48;;;;;;;36.25;4.75;;;;;;;2.72;100.00;102325.53;4969742;28;20822;-71
2023/01/31 00:20:13;;;;;;;22.35;4.40;;;;;;;2.72;100.00;102331.69;4980817;28;20061;-71
2023/01/31 00:22:39;;;;;;;26.25;4.97;;;;;;;2.78;100.00;102326.38;4966446;28;20051;-71
2023/01/31 00:25:04;;;;;;;31.02;6.97;;;;;;;2.85;100.00;102324.56;4978611;28;20092;-71
2023/01/31 00:27:30;;;;;;;31.13;4.05;;;;;;;2.90;100.00;102325.38;4970899;28;20034;-71
2023/01/31 00:29:55;;;;;;;25.83;4.78;;;;;;;2.89;100.00;102333.31;4969332;28;20401;-71
2023/01/31 00:32:21;;;;;;;26.70;4.07;;;;;;;2.82;100.00;102320.19;4978129;28;20039;-71
2023/01/31 00:34:49;;;;;;;27.65;4.32;;;;;;;2.83;100.00;102313.16;4958689;28;20820;-71
2023/01/31 00:37:15;;;;;;;29.40;4.18;;;;;;;2.93;100.00;102316.59;4949885;28;20042;-72
2023/01/31 00:39:40;;;;;;;28.55;4.22;;;;;;;2.84;100.00;102313.13;4972579;28;20042;-71
2023/01/31 00:42:07;;;;;;;28.42;4.50;;;;;;;2.87;100.00;102319.28;4970909;28;20034;-71
2023/01/31 00:44:32;;;;;;;30.02;6.05;;;;;;;2.94;100.00;102307.81;4977679;28;20046;-71
2023/01/31 00:46:58;;;;;;;37.03;6.57;;;;;;;2.87;100.00;102304.34;4966880;28;20038;-71
2023/01/31 00:49:23;;;;;;;30.40;4.95;;;;;;;2.80;100.00;102314.03;4959705;28;20045;-71
2023/01/31 00:51:49;;;;;;;31.95;5.22;;;;;;;2.89;100.00;102302.56;4976131;28;20506;-71
2023/01/31 00:54:14;;;;;;;35.55;5.35;;;;;;;2.83;100.00;102292.97;4952892;28;20100;-73
2023/01/31 00:56:39;;;;;;;35.60;4.88;;;;;;;2.74;100.00;102294.78;4980153;28;20034;-72
2023/01/31 00:59:07;;;;;;;36.33;4.63;;;;;;;2.79;100.00;102291.22;4984882;28;20551;-71
2023/01/31 01:01:34;;;;;;;33.42;4.40;;;;;;;2.66;100.00;102288.69;4958542;28;20481;-71
2023/01/31 01:04:00;;;;;;;24.48;5.07;;;;;;;2.74;100.00;102293.03;4971261;28;20031;-71
2023/01/31 01:06:31;;;;;;;24.10;4.03;;;;;;;2.67;100.00;102288.69;4953453;28;20038;-71
2023/01/31 01:08:58;;;;;;;13.13;4.05;;;;;;;2.75;100.00;102283.38;4989258;28;20488;-71
2023/01/31 01:11:34;;;;;;;21.00;5.07;;;;;;;2.70;100.00;102283.41;4959713;28;20042;-71
2023/01/31 01:14:00;;;;;;;23.90;4.45;;;;;;;2.65;100.00;102284.31;4958172;28;20108;-71
2023/01/31 01:16:34;;;;;;;34.83;4.50;;;;;;;2.58;100.00;102281.75;4975051;28;20110;-71
2023/01/31 01:19:05;;;;;;;33.03;5.05;;;;;;;2.58;100.00;102281.75;4974431;28;20508;-71
2023/01/31 01:21:31;;;;;;;22.98;4.85;;;;;;;2.50;100.00;102287.94;4975558;28;20043;-72
2023/01/31 01:24:01;;;;;;;27.50;4.47;;;;;;;2.54;100.00;102282.63;4975130;28;20149;-71
2023/01/31 01:26:29;;;;;;;30.73;4.55;;;;;;;2.39;100.00;102293.25;4977569;28;20049;-71
2023/01/31 01:28:56;;;;;;;19.13;4.03;;;;;;;2.32;100.00;102289.81;4981627;28;20121;-71
2023/01/31 01:31:28;;;;;;;26.23;4.47;;;;;;;2.41;100.00;102287.97;4974607;28;20762;-72
2023/01/31 01:33:57;;;;;;;24.13;5.28;;;;;;;2.42;100.00;102292.38;4958891;28;20046;-71
2023/01/31 01:36:24;;;;;;;27.17;5.18;;;;;;;2.37;100.00;102288.91;4961121;28;20042;-71
2023/01/31 01:38:51;;;;;;;31.45;7.28;;;;;;;2.31;100.00;102293.34;4973079;28;20042;-72
2023/01/31 01:41:16;;;;;;;26.73;4.35;;;;;;;2.37;100.00;102292.41;4981795;28;20050;-71
2023/01/31 01:43:50;;;;;;;26.73;4.25;;;;;;;2.51;100.00;102287.03;4978759;28;20045;-71
2023/01/31 01:46:40;;;;;;;32.92;7.15;;;;;;;2.54;100.00;102293.16;4958785;28;20084;-71
2023/01/31 01:49:31;;;;;;;23.90;3.97;;;;;;;2.59;100.00;102294.00;4964719;28;20045;-71
2023/01/31 01:52:01;;;;;;;17.08;3.83;;;;;;;2.54;100.00;102293.16;4961016;28;20042;-71
2023/01/31 01:54:34;;;;;;;27.38;4.95;;;;;;;2.55;100.00;102299.31;4963780;28;20109;-71
2023/01/31 01:57:05;;;;;;;23.50;4.90;;;;;;;2.58;100.00;102297.53;4972290;28;20765;-71
2023/01/31 01:59:36;;;;;;;26.88;5.35;;;;;;;2.63;100.00;102304.53;4984602;28;20026;-71
2023/01/31 02:02:02;;;;;;;21.13;4.93;;;;;;;2.56;100.00;102304.59;4979992;28;20046;-70
2023/01/31 02:04:32;;;;;;;21.02;3.85;;;;;;;2.53;100.00;102303.72;4966313;28;20045;-71
2023/01/31 02:06:59;;;;;;;20.05;4.63;;;;;;;2.31;100.00;102301.22;4957407;28;20046;-72
2023/01/31 02:09:41;;;;;;;30.83;4.53;;;;;;;2.16;100.00;102303.03;4964481;28;20062;-72
2023/01/31 02:12:08;;;;;;;18.15;3.78;;;;;;;2.17;100.00;102299.56;4967926;28;20484;-71
2023/01/31 02:14:34;;;;;;;26.77;4.97;;;;;;;1.82;100.00;102295.31;4967527;28;20073;-71
2023/01/31 02:17:00;;;;;;;29.20;4.13;;;;;;;1.81;100.00;102294.44;4964581;28;20031;-71
2023/01/31 02:19:40;;;;;;;33.50;5.72;;;;;;;1.68;100.00;102298.00;4970851;28;20034;-71
2023/01/31 02:22:35;;;;;;;20.80;4.60;;;;;;;1.76;100.00;102297.97;4966429;28;20061;-71
2023/01/31 02:25:42;;;;;;;24.60;3.95;;;;;;;1.84;100.00;102304.06;4983415;28;20059;-71
2023/01/31 02:28:26;;;;;;;23.08;4.70;;;;;;;2.07;100.00;102296.97;4961796;28;20094;-71
2023/01/31 02:31:24;;;;;;;44.80;6.03;;;;;;;2.19;100.00;102292.50;4976624;28;20035;-74
2023/01/31 02:33:58;;;;;;;23.85;4.55;;;;;;;2.12;100.00;102301.34;4944463;28;20105;-72
2023/01/31 02:36:28;;;;;;;22.60;4.40;;;;;;;2.27;100.00;102302.13;4957850;28;20515;-71
2023/01/31 02:39:12;;;;;;;32.53;4.65;;;;;;;2.34;100.00;102295.06;4959952;28;20074;-72
2023/01/31 02:42:12;;;;;;;30.13;4.38;;;;;;;2.51;100.00;102292.31;4962349;28;20122;-71
2023/01/31 02:44:58;;;;;;;20.10;3.90;;;;;;;2.58;100.00;102283.50;4966531;28;20038;-71
2023/01/31 02:47:36;;;;;;;26.45;5.82;;;;;;;2.85;100.00;102278.00;4953202;28;20070;-72
2023/01/31 02:50:25;;;;;;;25.63;3.97;;;;;;;2.98;100.00;102273.53;4947387;28;20144;-71
2023/01/31 02:53:04;;;;;;;36.53;5.10;;;;;;;2.94;100.00;102273.56;4960742;28;20637;-71
2023/01/31 02:58:21;;;;;;;24.00;5.20;;;;;;;3.16;100.00;102264.56;4966538;28;20499;-71
2023/01/31 03:00:48;;;;;;;27.55;3.85;;;;;;;3.19;100.00;102259.25;4966552;28;20034;-71
2023/01/31 03:03:26;;;;;;;25.73;5.55;;;;;;;3.20;100.00;102252.22;4983430;28;20063;-72
2023/01/31 03:06:10;;;;;;;34.47;4.93;;;;;;;3.27;100.00;102259.19;4984296;28;20088;-71
2023/01/31 03:08:40;;;;;;;19.52;4.20;;;;;;;3.29;100.00;102255.63;4968387;28;20602;-72
2023/01/31 03:11:07;;;;;;;25.33;5.22;;;;;;;3.14;100.00;102249.66;4962355;28;20054;-71
2023/01/31 03:13:32;;;;;;;22.02;6.22;;;;;;;3.27;100.00;102243.38;4959087;28;20141;-72
2023/01/31 03:19:31;;;;;;;29.75;4.72;;;;;;;3.34;100.00;102231.88;4972125;28;20051;-72
2023/01/31 03:22:02;;;;;;;25.92;4.93;;;;;;;3.38;100.00;102239.72;4933483;28;20054;-72
2023/01/31 03:24:29;;;;;;;32.13;5.28;;;;;;;3.51;100.00;102229.03;4966323;28;20874;-71
2023/01/31 03:27:00;;;;;;;29.05;5.22;;;;;;;3.35;100.00;102231.84;4948963;28;20053;-71
2023/01/31 03:29:29;;;;;;;22.90;4.93;;;;;;;3.23;100.00;102226.72;4951530;28;20046;-71
2023/01/31 03:31:59;;;;;;;29.08;6.80;;;;;;;3.49;100.00;102234.34;4981412;28;20038;-71
2023/01/31 03:34:25;;;;;;;31.85;6.40;;;;;;;3.36;100.00;102233.63;4965313;28;20111;-72
2023/01/31 03:37:00;;;;;;;28.95;6.55;;;;;;;3.49;100.00;102233.47;4960586;28;20059;-71
2023/01/31 03:40:15;;;;;;;31.67;7.85;;;;;;;3.58;100.00;102228.09;4954971;28;20031;-72
2023/01/31 03:42:50;;;;;;;30.80;6.97;;;;;;;3.67;100.00;102227.09;4980716;28;20875;-71
2023/01/31 03:45:34;;;;;;;43.25;7.38;;;;;;;3.82;100.00;102222.50;4963854;28;20521;-71
2023/01/31 03:48:02;;;;;;;25.67;6.40;;;;;;;3.92;100.00;102222.38;4966090;28;20034;-72
2023/01/31 03:50:38;;;;;;;36.40;7.03;;;;;;;4.13;100.00;102224.72;4981386;28;20870;-72
2023/01/31 03:53:09;;;;;;;25.83;6.28;;;;;;;4.11;100.00;102223.84;4980406;28;20050;-71
2023/01/31 03:55:59;;;;;;;24.33;7.68;;;;;;;4.16;100.00;102217.59;4964638;28;20045;-71
2023/01/31 03:58:34;;;;;;;36.63;8.65;;;;;;;4.22;100.00;102235.16;4970153;28;20414;-71
2023/01/31 04:01:04;;;;;;;31.83;7.97;;;;;;;4.33;100.00;102229.72;4979456;28;20045;-72
2023/01/31 04:03:40;;;;;;;30.20;7.97;;;;;;;4.40;100.00;102221.66;4959396;28;20038;-72
2023/01/31 04:06:06;;;;;;;22.33;7.10;;;;;;;4.47;100.00;102214.53;4962302;28;20038;-71
2023/01/31 04:08:33;;;;;;;33.42;10.18;;;;;;;4.46;100.00;102219.81;4965573;28;20697;-71
2023/01/31 04:11:07;;;;;;;35.95;8.13;;;;;;;4.53;100.00;102209.13;4964826;28;20046;-71
2023/01/31 04:13:33;;;;;;;44.35;9.55;;;;;;;4.51;100.00;102210.91;4976688;28;20038;-72
2023/01/31 04:15:59;;;;;;;43.35;9.48;;;;;;;4.53;100.00;102197.69;4976964;28;20050;-71
2023/01/31 04:18:24;;;;;;;31.80;10.30;;;;;;;4.53;100.00;102198.56;4976842;28;20484;-71
2023/01/31 04:20:50;;;;;;;38.20;9.60;;;;;;;4.50;100.00;102201.25;4968935;28;20034;-72
2023/01/31 04:23:17;;;;;;;30.45;8.63;;;;;;;4.48;100.00;102195.13;4981662;28;20046;-71
2023/01/31 04:25:43;;;;;;;34.25;9.82;;;;;;;4.44;100.00;102201.34;4982730;28;20053;-71
2023/01/31 04:28:09;;;;;;;23.15;9.20;;;;;;;4.45;100.00;102203.09;4982617;28;20418;-71
2023/01/31 04:30:34;;;;;;;33.53;8.68;;;;;;;4.40;100.00;102200.53;4981130;28;20042;-72
2023/01/31 04:33:00;;;;;;;29.85;10.00;;;;;;;4.49;100.00;102196.00;4994599;28;20116;-71
2023/01/31 04:35:25;;;;;;;35.08;10.45;;;;;;;4.49;100.00;102182.78;4972799;28;20506;-72
2023/01/31 04:37:51;;;;;;;45.10;9.98;;;;;;;4.37;100.00;102181.25;4959171;28;20403;-71
2023/01/31 04:40:16;;;;;;;38.90;9.35;;;;;;;4.40;100.00;102182.03;4981925;28;20054;-72
2023/01/31 04:42:42;;;;;;;36.60;10.20;;;;;;;4.52;100.00;102180.09;4976665;28;20038;-72
2023/01/31 04:45:08;;;;;;;38.22;9.68;;;;;;;4.53;100.00;102177.44;4981901;28;20041;-71
2023/01/31 04:47:33;;;;;;;36.08;9.25;;;;;;;4.53;100.00;102173.94;4982172;28;20046;-71
2023/01/31 04:49:59;;;;;;;39.35;9.40;;;;;;;4.44;100.00;102180.22;4976625;28;20538;-71
2023/01/31 04:52:24;;;;;;;35.53;10.50;;;;;;;4.45;100.00;102176.69;4983379;28;20133;-72
2023/01/31 04:54:50;;;;;;;47.33;11.02;;;;;;;4.45;100.00;102179.31;4978748;28;20743;-71
2023/01/31 04:57:15;;;;;;;44.28;10.88;;;;;;;4.51;100.00;102167.78;4978885;28;20562;-71
2023/01/31 04:59:41;;;;;;;46.90;11.55;;;;;;;4.52;100.00;102162.50;4982258;28;20038;-71
2023/01/31 05:02:06;;;;;;;50.67;10.43;;;;;;;4.53;100.00;102158.94;4990503;28;20057;-72
2023/01/31 05:04:32;;;;;;;30.42;10.77;;;;;;;4.38;100.00;102159.22;4982367;28;20057;-71
2023/01/31 05:06:57;;;;;;;47.10;10.63;;;;;;;4.48;100.00;102152.88;4979324;28;20038;-71
2023/01/31 05:09:23;;;;;;;43.53;10.50;;;;;;;4.52;100.00;102151.03;4979554;28;20085;-71
2023/01/31 05:11:49;;;;;;;42.30;10.85;;;;;;;4.34;100.00;102153.09;4981111;28;20050;-72
2023/01/31 05:14:15;;;;;;;30.25;10.55;;;;;;;4.29;100.00;102139.09;4965843;28;20038;-71
2023/01/31 05:16:44;;;;;;;50.63;11.05;;;;;;;4.35;100.00;102133.72;4965493;28;20618;-72
2023/01/31 05:19:10;;;;;;;46.92;14.10;;;;;;;4.44;100.00;102129.19;4976239;28;20031;-73
2023/01/31 05:21:53;;;;;;;48.75;10.35;;;;;;;4.41;100.00;102122.16;4961803;28;20046;-71
2023/01/31 05:24:22;;;;;;;41.33;11.88;;;;;;;4.38;100.00;102125.75;4976686;28;20046;-72
2023/01/31 05:26:51;;;;;;;33.75;10.20;;;;;;;4.39;100.00;102124.84;4971735;28;20454;-72
2023/01/31 05:29:17;;;;;;;38.17;12.20;;;;;;;4.36;100.00;102121.38;4979835;28;20407;-72
2023/01/31 05:31:43;;;;;;;34.78;10.95;;;;;;;4.29;100.00;102127.66;4975579;28;20135;-71
2023/01/31 05:34:10;;;;;;;39.13;11.52;;;;;;;4.44;100.00;102131.81;4957552;28;20121;-71
2023/01/31 05:36:36;;;;;;;46.83;11.45;;;;;;;4.43;100.00;102143.28;4983945;28;20046;-72
2023/01/31 05:39:01;;;;;;;37.92;11.82;;;;;;;4.48;100.00;102139.66;4990845;28;20483;-71
2023/01/31 05:41:27;;;;;;;50.17;13.48;;;;;;;4.49;100.00;102140.53;4991894;28;20043;-71
2023/01/31 05:43:52;;;;;;;36.88;11.43;;;;;;;4.53;100.00;102126.38;4982309;28;20045;-71
2023/01/31 05:46:18;;;;;;;49.28;11.98;;;;;;;4.58;100.00;102125.41;4957130;28;20042;-71
2023/01/31 05:48:43;;;;;;;42.00;12.35;;;;;;;4.56;100.00;102121.91;4984844;28;20045;-71
2023/01/31 05:51:09;;;;;;;36.75;13.85;;;;;;;4.45;100.00;102123.00;4966858;28;20053;-71
2023/01/31 05:53:34;;;;;;;41.17;11.57;;;;;;;4.40;100.00;102107.22;4984569;28;20084;-72
2023/01/31 05:56:00;;;;;;;45.10;12.60;;;;;;;4.48;100.00;102097.41;4978261;28;20074;-71
2023/01/31 05:58:25;;;;;;;39.47;11.30;;;;;;;4.39;100.00;102090.50;4977306;28;20775;-72
2023/01/31 06:00:55;;;;;;;36.67;12.63;;;;;;;4.36;100.00;102085.28;4984409;28;20411;-72
2023/01/31 06:03:20;;;;;;;47.20;12.73;;;;;;;4.49;100.00;102091.22;4981334;28;20042;-71
2023/01/31 06:05:46;;;;;;;39.78;11.70;;;;;;;4.50;100.00;102100.88;4979793;28;20793;-72
2023/01/31 06:08:11;;;;;;;34.28;11.30;;;;;;;4.52;100.00;102088.53;4977530;28;20031;-72
2023/01/31 06:10:37;;;;;;;47.83;13.07;;;;;;;4.64;100.00;102090.94;4974222;28;20038;-71
2023/01/31 06:13:02;;;;;;;43.10;12.27;;;;;;;4.48;100.00;102088.63;4967824;28;20059;-71
2023/01/31 06:15:28;;;;;;;35.42;10.90;;;;;;;4.46;100.00;102099.19;4973278;28;20073;-71
2023/01/31 06:17:53;;;;;;;46.22;14.27;;;;;;;4.57;100.00;102091.97;4981027;28;20122;-71
2023/01/31 06:20:19;;;;;;;40.17;12.93;;;;;;;4.57;100.00;102085.81;4975493;28;20854;-71
2023/01/31 06:22:44;;;;;;;41.88;11.95;;;;;;;4.58;100.00;102085.78;4975891;28;20038;-71
2023/01/31 06:25:10;;;;;;;46.42;13.07;;;;;;;4.53;100.00;102086.75;4958205;28;20055;-71
2023/01/31 06:27:35;;;;;;;50.30;11.60;;;;;;;4.48;100.00;102076.28;4975929;28;20041;-71
2023/01/31 06:30:00;;;;;;;48.53;14.35;;;;;;;4.51;100.00;102075.34;4983973;28;20090;-71
2023/01/31 06:32:26;;;;;;;54.00;12.68;;;;;;;4.47;100.00;102076.28;4983436;28;20046;-71
2023/01/31 06:34:51;;;;;;;54.25;12.95;;;;;;;4.57;100.00;102077.91;4982920;28;20042;-71
2023/01/31 06:37:17;;;;;;;40.15;12.90;;;;;;;4.56;100.00;102084.06;4975974;28;20046;-72
2023/01/31 06:39:42;;;;;;;44.58;13.25;;;;;;;4.53;100.00;102074.44;4980471;28;20034;-71
2023/01/31 06:42:08;;;;;;;44.15;13.85;;;;;;;4.59;100.00;102076.94;4976366;28;20069;-72
2023/01/31 06:44:33;;;;;;;40.25;12.20;;;;;;;4.43;100.00;102072.00;4974145;28;20054;-71
2023/01/31 06:47:00;;;;;;;56.85;13.50;;;;;;;4.41;100.00;102059.66;4977174;28;20047;-72
2023/01/31 06:49:25;;;;;;;47.75;13.80;;;;;;;4.45;100.00;102057.84;4974497;28;20035;-72
2023/01/31 06:51:50;;;;;;;35.85;12.18;;;;;;;4.45;100.00;102067.53;4982183;28;20093;-71
2023/01/31 06:54:16;;;;;;;41.50;12.90;;;;;;;4.46;100.00;102067.50;4983751;28;20093;-71
2023/01/31 06:56:41;;;;;;;57.15;13.93;;;;;;;4.46;100.00;102085.13;4978102;28;20046;-72
2023/01/31 06:59:07;;;;;;;38.03;12.90;;;;;;;4.54;100.00;102076.16;4984058;28;20053;-71
2023/01/31 07:01:32;;;;;;;46.17;12.30;;;;;;;4.55;100.00;102069.97;4959309;28;20434;-71
2023/01/31 07:03:58;;;;;;;38.13;12.10;;;;;;;4.50;100.00;102076.25;4982334;28;20038;-71
2023/01/31 07:06:23;;;;;;;34.33;12.77;;;;;;;4.49;100.00;102066.59;4975890;28;20042;-71
2023/01/31 07:08:48;;;;;;;36.03;13.02;;;;;;;4.65;100.00;102055.69;4966760;28;20047;-71
2023/01/31 07:11:14;;;;;;;42.42;12.30;;;;;;;4.60;100.00;102052.28;4966336;28;20053;-71
2023/01/31 07:13:39;;;;;;;41.15;12.18;;;;;;;4.68;100.00;102060.06;4971504;28;20050;-72
2023/01/31 07:16:05;;;;;;;43.40;14.68;;;;;;;4.68;100.00;102068.00;4982468;28;20090;-71
2023/01/31 07:18:30;;;;;;;32.85;12.10;;;;;;;4.64;100.00;102061.00;4971017;28;20055;-71
2023/01/31 07:20:56;;;;;;;39.60;11.77;;;;;;;4.72;100.00;102060.84;4980924;28;20404;-72
2023/01/31 07:23:21;;;;;;;40.92;11.85;;;;;;;4.72;100.00;102063.50;4984132;28;20142;-72
2023/01/31 07:25:46;;;;;;;32.35;12.48;;;;;;;4.69;100.00;102061.78;4982288;28;20053;-71
2023/01/31 07:28:12;;;;;;;39.75;11.77;;;;;;;4.68;100.00;102063.56;4980573;28;20038;-71
2023/01/31 07:30:38;;;;;;;42.42;13.00;;;;;;;4.69;100.00;102059.16;4973715;28;20038;-71
2023/01/31 07:33:04;;;;;;;40.03;13.45;;;;;;;4.75;100.00;102060.81;4983978;28;20054;-71
2023/01/31 07:35:29;;;;;;;32.33;13.35;;;;;;;4.79;100.00;102071.28;4979875;28;20089;-71
2023/01/31 07:37:55;;;;;;;32.08;10.88;;;;;;;4.74;100.00;102056.44;4977894;28;20034;-71
2023/01/31 07:40:21;;;;;;;33.65;12.50;;;;;;;4.79;100.00;102055.44;4982560;28;20042;-72
2023/01/31 07:42:46;;;;;;;28.85;11.20;;;;;;;5.00;100.00;102059.41;4974351;28;20054;-71
2023/01/31 07:45:14;;;;;;;33.78;11.93;;;;;;;4.91;100.00;102051.66;4977104;28;20152;-72
2023/01/31 07:47:41;;;;;;;34.70;11.18;;;;;;;4.98;100.00;102047.13;4978802;28;20042;-72
2023/01/31 07:50:06;;;;;;;30.95;10.55;;;;;;;5.03;100.00;102029.41;4980537;28;20077;-71
2023/01/31 07:52:32;;;;;;;32.97;10.88;;;;;;;5.02;100.00;102038.22;4977548;28;20081;-72
2023/01/31 07:54:58;;;;;;;34.25;10.25;;;;;;;4.99;100.00;102030.38;4982187;28;20056;-71
2023/01/31 07:57:23;;;;;;;38.22;10.57;;;;;;;4.98;100.00;102024.22;4976024;28;20034;-71
2023/01/31 07:59:49;;;;;;;27.98;10.32;;;;;;;5.08;100.00;102030.19;4974263;28;20066;-72
2023/01/31 08:05:00;;;;;;;40.70;11.02;;;;;;;5.24;100.00;102030.72;4987214;28;20034;-71
2023/01/31 08:07:27;;;;;;;28.17;8.88;;;;;;;5.26;100.00;102024.47;4978881;28;20140;-71
2023/01/31 08:09:52;;;;;;;33.13;9.30;;;;;;;5.23;100.00;102013.13;4973482;28;20039;-72
2023/01/31 08:12:18;;;;;;;33.65;8.82;;;;;;;5.35;100.00;102012.81;4977027;28;20053;-72
2023/01/31 08:14:43;;;;;;;29.95;9.13;;;;;;;5.32;100.00;102012.88;4982084;28;20049;-71
2023/01/31 08:17:09;;;;;;;38.90;9.25;;;;;;;5.34;100.00;102009.31;4995905;28;20049;-71
2023/01/31 08:19:35;;;;;;;25.38;8.63;;;;;;;5.31;100.00;102001.44;4982295;28;20039;-71
2023/01/31 08:22:03;;;;;;;29.60;8.25;;;;;;;5.30;100.00;102012.06;4983144;28;20065;-72
2023/01/31 08:24:29;;;;;;;37.90;8.80;;;;;;;5.34;100.00;102011.97;4959388;28;20052;-71
2023/01/31 08:26:55;;;;;;;35.47;9.02;;;;;;;5.44;100.00;102007.31;4976908;28;20045;-71
2023/01/31 08:29:21;;;;;;;26.58;8.57;;;;;;;5.29;100.00;102003.25;4983295;28;20046;-73
2023/01/31 08:31:46;;;;;;;25.13;8.80;;;;;;;5.26;100.00;101992.75;4981964;28;20065;-72
2023/01/31 08:34:11;;;;;;;25.90;8.68;;;;;;;5.40;100.00;101997.72;4982661;28;20542;-72
2023/01/31 08:36:37;;;;;;;33.20;9.20;;;;;;;5.46;100.00;101977.28;4982766;28;20046;-71
2023/01/31 08:39:03;;;;;;;27.80;7.55;;;;;;;5.46;100.00;101979.06;4983578;28;20042;-72
2023/01/31 08:41:30;;;;;;;24.25;7.65;;;;;;;5.43;100.00;101971.22;4979301;28;20041;-71
2023/01/31 08:43:56;;;;;;;32.92;8.35;;;;;;;5.55;100.00;101973.53;4964922;28;20491;-71
2023/01/31 08:46:28;;;;;;;33.17;9.50;;;;;;;5.67;100.00;101967.97;4982286;28;20034;-71
2023/01/31 08:48:54;;;;;;;31.63;6.88;;;;;;;5.75;100.00;101962.47;4980124;28;20542;-72
2023/01/31 08:51:20;;;;;;;27.15;7.95;;;;;;;5.69;100.00;101970.56;4982354;28;20077;-71
2023/01/31 08:53:46;;;;;;;27.65;7.53;;;;;;;5.79;100.00;101963.28;4964912;28;20046;-71
2023/01/31 08:56:13;;;;;;;44.03;9.30;;;;;;;5.77;100.00;101970.34;4975086;28;20050;-71
2023/01/31 08:58:40;;;;;;;35.83;8.32;;;;;;;5.80;100.00;101957.06;4980249;28;20046;-71
2023/01/31 09:01:14;;;;;;;22.42;6.65;;;;;;;5.90;100.00;101977.09;4980727;28;20135;-71
2023/01/31 09:03:40;;;;;;;25.48;6.90;;;;;;;5.91;100.00;101970.88;4982330;28;20044;-71
2023/01/31 09:06:10;;;;;;;23.70;7.82;;;;;;;6.03;100.00;101967.09;4969313;28;20081;-71
2023/01/31 09:08:35;;;;;;;24.58;8.05;;;;;;;5.95;100.00;101946.09;4985821;28;20433;-71
2023/01/31 09:11:01;;;;;;;29.55;8.23;;;;;;;6.08;100.00;101958.13;4983250;28;20043;-72
2023/01/31 09:13:27;;;;;;;25.88;7.55;;;;;;;6.16;100.00;101949.94;4976552;28;20105;-71
2023/01/31 09:15:58;;;;;;;24.65;8.20;;;;;;;6.01;100.00;101950.38;4969475;28;20065;-71
2023/01/31 09:18:23;;;;;;;37.05;8.23;;;;;;;6.00;100.00;101951.28;4985597;28;20065;-71
2023/01/31 09:20:49;;;;;;;25.45;6.10;;;;;;;5.99;100.00;101958.34;4969031;28;20050;-71
2023/01/31 09:23:14;;;;;;;22.40;6.43;;;;;;;6.01;100.00;101953.88;4976743;28;20058;-72
2023/01/31 09:25:40;;;;;;;18.27;6.57;;;;;;;6.15;100.00;101948.22;4986266;28;20042;-71
2023/01/31 09:28:05;;;;;;;23.73;7.22;;;;;;;6.22;100.00;101936.53;4977092;28;20046;-71
2023/01/31 09:30:30;;;;;;;33.20;6.55;;;;;;;6.14;100.00;101938.56;4985281;28;20030;-72
2023/01/31 09:33:00;;;;;;;21.58;6.03;;;;;;;6.18;100.00;101942.84;4985815;28;20860;-71
2023/01/31 09:35:25;;;;;;;25.15;7.25;;;;;;;6.27;100.00;101942.56;4968716;28;20104;-72
2023/01/31 09:37:51;;;;;;;26.38;7.10;;;;;;;6.39;100.00;101947.56;4980012;28;20052;-72
2023/01/31 09:40:24;;;;;;;16.45;5.07;;;;;;;6.23;100.00;101948.91;4995744;28;20038;-71
2023/01/31 09:42:50;;;;;;;19.83;6.47;;;;;;;6.32;100.00;101948.63;4959183;28;20079;-71
2023/01/31 09:45:35;;;;;;;34.33;7.55;;;;;;;6.43;100.00;101958.94;4986058;28;20046;-71
2023/01/31 09:48:01;;;;;;;21.50;6.65;;;;;;;6.26;100.00;101937.34;4985204;28;20047;-72
2023/01/31 09:50:35;;;;;;;25.50;6.15;;;;;;;6.37;100.00;101951.13;4982794;28;20046;-71
2023/01/31 09:53:01;;;;;;;19.05;6.10;;;;;;;6.33;100.00;101946.88;4965719;28;20506;-72
2023/01/31 09:56:04;;;;;;;29.58;6.28;;;;;;;6.34;100.00;101953.91;4981154;28;20092;-72
2023/01/31 09:58:58;;;;;;;13.95;5.18;;;;;;;6.26;100.00;101951.44;4981433;28;20093;-72
2023/01/31 10:01:31;;;;;;;28.13;7.30;;;;;;;6.37;100.00;101954.66;4981179;28;20050;-72
2023/01/31 10:04:21;;;;;;;24.48;5.38;;;;;;;6.36;100.00;101946.75;4982463;28;20509;-69
2023/01/31 10:07:13;;;;;;;22.02;5.60;;;;;;;6.24;100.00;101945.31;4975646;28;20486;-72
2023/01/31 10:10:08;;;;;;;20.40;5.82;;;;;;;6.10;100.00;101948.34;4967220;28;20761;-72
2023/01/31 10:12:43;;;;;;;25.55;5.88;;;;;;;6.29;100.00;101942.56;4957669;28;20602;-72
2023/01/31 10:15:53;;;;;;;20.60;6.95;;;;;;;6.12;100.00;101935.06;4983375;28;20060;-72
2023/01/31 10:18:36;;;;;;;20.52;6.15;;;;;;;6.25;100.00;101941.75;4973000;28;20472;-72
2023/01/31 10:21:14;;;;;;;25.10;5.97;;;;;;;6.27;100.00;101939.06;4978907;28;20042;-71
2023/01/31 10:23:47;;;;;;;28.27;8.70;;;;;;;6.28;100.00;101936.41;4982563;28;20790;-72
2023/01/31 10:26:36;;;;;;;25.98;6.55;;;;;;;6.31;100.00;101930.13;4963680;28;20454;-71
2023/01/31 10:29:20;;;;;;;34.13;8.70;;;;;;;6.22;100.00;101925.94;4961510;28;20105;-72
2023/01/31 10:31:52;;;;;;;19.40;6.03;;;;;;;6.33;100.00;101917.72;4982403;28;20034;-71
2023/01/31 10:34:26;;;;;;;25.30;6.85;;;;;;;6.36;100.00;101914.97;4981197;28;20042;-72
2023/01/31 10:37:01;;;;;;;21.83;7.65;;;;;;;6.49;100.00;101913.72;4983938;28;20042;-71
2023/01/31 10:39:36;;;;;;;20.13;7.35;;;;;;;6.56;100.00;101903.78;4983794;28;20053;-71
2023/01/31 10:42:20;;;;;;;37.10;6.72;;;;;;;6.46;100.00;101906.72;4984323;28;20069;-71
2023/01/31 10:44:58;;;;;;;11.10;6.28;;;;;;;6.59;100.00;101909.00;4980120;28;20129;-71
2023/01/31 10:47:30;;;;;;;22.90;8.02;;;;;;;6.52;100.00;101912.75;4965366;28;20922;-70
2023/01/31 10:49:55;;;;;;;25.63;8.63;;;;;;;6.60;100.00;101910.75;4979288;28;20053;-71
2023/01/31 10:52:33;;;;;;;24.23;8.00;;;;;;;6.41;100.00;101913.91;4983217;28;20030;-71
2023/01/31 10:54:58;;;;;;;21.63;8.32;;;;;;;6.49;100.00;101919.00;4965917;28;20093;-71
2023/01/31 10:57:23;;;;;;;22.83;8.13;;;;;;;6.55;100.00;101910.88;4979572;28;20043;-72
2023/01/31 10:59:50;;;;;;;22.10;9.00;;;;;;;6.66;100.00;101890.22;4973789;28;20042;-71
2023/01/31 11:02:25;;;;;;;28.80;7.85;;;;;;;6.59;100.00;101890.47;4983822;28;20053;-71
2023/01/31 11:04:54;;;;;;;25.42;8.38;;;;;;;6.67;100.00;101891.09;4978959;28;20076;-71
2023/01/31 11:07:20;;;;;;;22.17;7.43;;;;;;;6.63;100.00;101885.03;4971631;28;20042;-72
2023/01/31 11:09:52;;;;;;;30.42;8.73;;;;;;;6.74;100.00;101893.50;4964454;28;20042;-71
2023/01/31 11:12:38;;;;;;;41.33;9.98;;;;;;;6.73;100.00;101901.53;4974548;28;20101;-72
2023/01/31 11:15:16;;;;;;;24.45;7.88;;;;;;;6.55;100.00;101886.16;4983186;28;20061;-70
2023/01/31 11:17:44;;;;;;;27.17;9.40;;;;;;;6.60;100.00;101876.28;4982518;28;20077;-70
2023/01/31 11:20:45;;;;;;;21.88;7.90;;;;;;;6.65;100.00;101877.03;4972879;28;20043;-71
2023/01/31 11:23:15;;;;;;;17.55;7.57;;;;;;;6.58;100.00;101880.78;4919844;28;20055;-70
2023/01/31 11:25:47;;;;;;;27.52;8.75;;;;;;;6.64;100.00;101876.16;4971278;28;20035;-71
2023/01/31 11:28:33;;;;;;;17.13;7.32;;;;;;;6.73;100.00;101873.22;4961972;28;20038;-71
2023/01/31 11:31:00;;;;;;;31.30;9.43;;;;;;;6.70;100.00;101878.63;4947681;28;20054;-71
2023/01/31 11:33:44;;;;;;;29.83;9.73;;;;;;;6.69;100.00;101889.28;4961273;28;20494;-71
2023/01/31 11:36:15;;;;;;;37.72;9.40;;;;;;;6.60;100.00;101878.94;4962671;28;20038;-71